Time;durP1;ratioP1;P1;durP2;ratioP2;P2;SDS_P1;SDS_P2;PMS_P1;PMS_P2;Temp;Humidity;BMP_temperature;BMP_pressure;BME280_temperature;BME280_humidity;BME280_pressure;Samples;Min_cycle;Max_cycle;Signal;HPM_P1;HPM_P2
2021/01/22 00:02:23;;;;;;;11.97;7.47;;;;;;;3.96;77.76;98383.35;1739575;81;25595;-70
2021/01/22 00:04:49;;;;;;;23.47;16.13;;;;;;;3.98;77.69;98387.97;1733527;82;25618;-70
2021/01/22 00:07:16;;;;;;;18.23;12.80;;;;;;;4.02;77.59;98387.66;1723326;82;25225;-70
2021/01/22 00:09:43;;;;;;;22.73;14.03;;;;;;;4.02;77.65;98382.91;1722679;81;25277;-70
2021/01/22 00:12:10;;;;;;;14.00;9.33;;;;;;;4.09;77.48;98385.45;1690766;83;25728;-69
2021/01/22 00:14:36;;;;;;;20.27;13.70;;;;;;;4.07;77.67;98385.56;1710385;83;25736;-70
2021/01/22 00:17:04;;;;;;;17.83;11.03;;;;;;;4.11;77.78;98380.97;1726746;82;25309;-70
2021/01/22 00:19:30;;;;;;;14.60;9.50;;;;;;;4.13;77.89;98378.26;1714742;82;25336;-71
2021/01/22 00:21:57;;;;;;;14.73;8.60;;;;;;;4.15;77.96;98365.96;1723621;82;25310;-71
2021/01/22 00:24:24;;;;;;;15.90;9.90;;;;;;;4.16;78.05;98359.83;1710356;82;25281;-71
2021/01/22 00:26:53;;;;;;;14.40;8.40;;;;;;;4.18;78.01;98358.76;1719576;81;25328;-70
2021/01/22 00:29:20;;;;;;;12.20;8.87;;;;;;;4.19;78.01;98355.23;1734145;82;25633;-70
2021/01/22 00:31:46;;;;;;;15.33;10.73;;;;;;;4.18;77.94;98352.73;1726260;82;25083;-71
2021/01/22 00:34:13;;;;;;;14.27;9.27;;;;;;;4.18;78.02;98353.55;1710400;83;25233;-70
2021/01/22 00:36:39;;;;;;;14.87;9.53;;;;;;;4.18;78.14;98348.83;1710393;83;25308;-72
2021/01/22 00:39:07;;;;;;;12.80;8.43;;;;;;;4.15;78.21;98344.66;1710302;82;25317;-70
2021/01/22 00:41:33;;;;;;;15.13;9.80;;;;;;;4.13;78.35;98341.83;1710157;83;25312;-70
2021/01/22 00:44:01;;;;;;;16.47;11.37;;;;;;;4.07;78.57;98346.53;1710233;82;25775;-70
2021/01/22 00:46:27;;;;;;;13.63;8.50;;;;;;;4.07;78.70;98340.02;1710245;83;25339;-70
2021/01/22 00:48:54;;;;;;;13.37;9.07;;;;;;;4.07;78.82;98331.36;1710218;83;25695;-70
2021/01/22 00:51:21;;;;;;;12.77;8.67;;;;;;;4.04;78.85;98316.82;1710148;83;25202;-70
2021/01/22 00:53:49;;;;;;;15.33;9.37;;;;;;;4.04;79.13;98314.22;1710300;82;25289;-71
2021/01/22 00:56:16;;;;;;;12.60;8.30;;;;;;;4.02;78.97;98307.00;1716285;82;25288;-70
2021/01/22 00:58:48;;;;;;;11.73;8.43;;;;;;;4.03;79.04;98293.52;1719462;82;25089;-70
2021/01/22 01:01:27;;;;;;;15.53;9.50;;;;;;;4.05;79.39;98280.73;1847159;76;26835;-70
2021/01/22 01:03:55;;;;;;;12.10;7.57;;;;;;;4.02;79.48;98272.33;1803894;78;25595;-70
2021/01/22 01:06:23;;;;;;;12.37;8.30;;;;;;;4.02;79.53;98279.69;1819877;77;25194;-70
2021/01/22 01:08:52;;;;;;;14.40;8.83;;;;;;;4.02;79.32;98274.92;1814444;77;25258;-71
2021/01/22 01:11:28;;;;;;;14.77;9.83;;;;;;;4.07;79.47;98270.22;1832948;76;27413;-70
2021/01/22 01:14:17;;;;;;;11.20;7.87;;;;;;;4.08;79.46;98268.81;1818400;78;27478;-70
2021/01/22 01:16:44;;;;;;;12.37;8.50;;;;;;;4.01;79.56;98262.40;1789591;80;25361;-70
2021/01/22 01:19:11;;;;;;;11.03;7.10;;;;;;;4.00;79.66;98256.00;1735498;80;25356;-70
2021/01/22 01:21:37;;;;;;;11.10;6.93;;;;;;;4.00;79.75;98263.81;1747774;81;25331;-70
2021/01/22 01:24:05;;;;;;;11.93;7.80;;;;;;;4.00;79.87;98250.32;1761260;81;25315;-70
2021/01/22 01:26:32;;;;;;;11.73;7.47;;;;;;;3.97;79.91;98250.57;1760440;81;25283;-70
2021/01/22 01:28:59;;;;;;;10.87;7.33;;;;;;;3.93;79.91;98243.91;1760876;80;25295;-70
2021/01/22 01:31:26;;;;;;;10.77;6.80;;;;;;;3.91;79.95;98244.50;1761247;81;25738;-69
2021/01/22 01:33:52;;;;;;;10.67;6.50;;;;;;;3.88;80.03;98244.23;1761179;81;25291;-70
2021/01/22 01:36:19;;;;;;;12.10;7.93;;;;;;;3.84;80.13;98230.29;1761151;80;25294;-71
2021/01/22 01:38:46;;;;;;;12.13;8.13;;;;;;;3.83;80.29;98227.31;1761230;81;25216;-70
2021/01/22 01:41:12;;;;;;;11.90;7.53;;;;;;;3.81;80.35;98224.82;1761031;80;25232;-70
2021/01/22 01:43:40;;;;;;;11.63;6.73;;;;;;;3.79;80.56;98219.36;1761202;81;25698;-69
2021/01/22 01:46:06;;;;;;;12.07;6.50;;;;;;;3.80;80.68;98218.42;1761157;81;25307;-70
2021/01/22 01:48:33;;;;;;;8.50;6.03;;;;;;;3.81;80.90;98216.20;1761229;81;25318;-71
2021/01/22 01:51:00;;;;;;;6.93;5.07;;;;;;;3.83;81.03;98209.11;1761260;81;25343;-71
2021/01/22 01:53:27;;;;;;;6.67;4.60;;;;;;;3.87;81.21;98206.18;1761002;80;25231;-71
2021/01/22 01:55:54;;;;;;;7.17;4.67;;;;;;;3.90;81.19;98205.96;1761259;81;25287;-71
2021/01/22 01:58:20;;;;;;;7.83;4.57;;;;;;;3.95;81.13;98206.91;1760326;80;25332;-71
2021/01/22 02:00:47;;;;;;;7.23;4.40;;;;;;;3.97;81.17;98199.84;1788698;80;25313;-72
2021/01/22 02:03:14;;;;;;;10.37;4.80;;;;;;;4.00;81.38;98194.39;1761112;81;25651;-70
2021/01/22 02:05:40;;;;;;;8.60;4.43;;;;;;;4.02;81.43;98193.83;1761293;81;25208;-71
2021/01/22 02:08:07;;;;;;;5.90;4.30;;;;;;;4.05;81.35;98190.97;1761225;81;25744;-71
2021/01/22 02:10:33;;;;;;;6.93;4.50;;;;;;;4.06;81.40;98186.14;1760706;80;25326;-71
2021/01/22 02:13:02;;;;;;;7.33;4.17;;;;;;;4.09;81.45;98176.81;1755254;81;25213;-70
2021/01/22 02:15:29;;;;;;;7.93;4.67;;;;;;;4.11;81.49;98171.98;1732630;81;25366;-71
2021/01/22 02:17:56;;;;;;;7.63;4.13;;;;;;;4.12;81.55;98180.94;1744224;81;25622;-71
2021/01/22 02:21:01;;;;;;;7.90;4.17;;;;;;;4.14;81.64;98180.83;1720838;82;25711;-70
2021/01/22 02:23:28;;;;;;;5.67;3.90;;;;;;;4.16;81.61;98182.87;1716603;80;25290;-71
2021/01/22 02:26:09;;;;;;;6.30;4.40;;;;;;;4.20;81.67;98167.38;1743592;81;25288;-71
2021/01/22 02:28:48;;;;;;;5.40;4.40;;;;;;;4.26;81.67;98163.02;1811763;78;26940;-70
2021/01/22 02:31:15;;;;;;;7.87;4.40;;;;;;;4.24;81.53;98168.78;1797521;79;25205;-71
2021/01/22 02:33:43;;;;;;;8.70;4.53;;;;;;;4.23;81.40;98158.86;1797437;79;25216;-70
2021/01/22 02:36:13;;;;;;;6.57;4.40;;;;;;;4.25;81.32;98158.27;1797455;79;25221;-71
2021/01/22 02:38:40;;;;;;;6.50;4.30;;;;;;;4.26;81.33;98157.81;1796939;79;25157;-71
2021/01/22 02:41:08;;;;;;;6.50;3.93;;;;;;;4.25;81.34;98145.25;1797295;79;25331;-71
2021/01/22 02:43:35;;;;;;;5.23;3.63;;;;;;;4.27;81.46;98133.42;1797605;79;25189;-72
2021/01/22 02:46:02;;;;;;;6.97;3.90;;;;;;;4.28;81.62;98122.08;1797089;79;25347;-71
2021/01/22 02:48:29;;;;;;;5.13;3.43;;;;;;;4.30;81.68;98114.16;1760432;79;25275;-72
2021/01/22 02:50:55;;;;;;;5.13;3.67;;;;;;;4.28;81.80;98103.38;1797247;79;25726;-71
2021/01/22 02:53:22;;;;;;;6.30;4.20;;;;;;;4.28;81.86;98103.38;1797172;79;25217;-71
2021/01/22 02:55:49;;;;;;;5.20;3.90;;;;;;;4.29;82.03;98096.42;1795935;79;25260;-71
2021/01/22 02:58:23;;;;;;;5.23;3.30;;;;;;;4.30;82.03;98092.86;1797409;79;25217;-71
2021/01/22 03:00:53;;;;;;;5.63;3.50;;;;;;;4.32;82.16;98090.14;1796712;79;25096;-71
2021/01/22 03:03:49;;;;;;;5.20;3.53;;;;;;;4.35;82.11;98090.73;1797329;79;25324;-71
2021/01/22 03:06:32;;;;;;;7.77;3.93;;;;;;;4.40;82.24;98073.46;1831453;76;27476;-70
2021/01/22 03:08:59;;;;;;;5.53;3.37;;;;;;;4.36;82.08;98070.27;1787690;79;25738;-70
2021/01/22 03:11:26;;;;;;;5.60;3.47;;;;;;;4.35;82.11;98071.20;1801109;78;25278;-71
2021/01/22 03:13:54;;;;;;;5.77;3.83;;;;;;;4.34;82.03;98073.47;1819662;78;25682;-71
2021/01/22 03:16:20;;;;;;;5.63;3.43;;;;;;;4.33;82.15;98071.80;1788523;77;25192;-71
2021/01/22 03:18:59;;;;;;;5.57;3.90;;;;;;;4.33;82.20;98073.59;1819087;78;25286;-70
2021/01/22 03:21:34;;;;;;;6.03;4.13;;;;;;;4.37;82.21;98071.91;1887975;76;26812;-69
2021/01/22 03:24:01;;;;;;;7.37;3.97;;;;;;;4.33;82.29;98084.00;1845016;77;25801;-71
2021/01/22 03:26:28;;;;;;;4.67;3.60;;;;;;;4.34;82.35;98082.58;1794681;78;25251;-71
2021/01/22 03:28:54;;;;;;;5.10;3.50;;;;;;;4.35;82.42;98086.83;1798051;77;25365;-71
2021/01/22 03:31:21;;;;;;;8.40;3.90;;;;;;;4.35;82.46;98092.03;1859471;77;25185;-70
2021/01/22 03:33:48;;;;;;;8.07;4.70;;;;;;;4.38;82.49;98115.23;1860300;77;25707;-70
2021/01/22 03:36:15;;;;;;;7.87;5.07;;;;;;;4.43;82.48;98126.59;1854124;77;25170;-70
2021/01/22 03:38:41;;;;;;;9.37;4.40;;;;;;;4.48;82.39;98115.84;1841394;77;25615;-70
2021/01/22 03:41:08;;;;;;;11.63;7.20;;;;;;;4.51;82.30;98121.64;1826439;78;25751;-70
2021/01/22 03:43:36;;;;;;;10.90;7.60;;;;;;;4.56;82.04;98132.53;1826528;77;25354;-72
2021/01/22 03:46:03;;;;;;;9.30;6.90;;;;;;;4.59;81.97;98132.30;1831133;77;25130;-70
2021/01/22 03:48:30;;;;;;;8.33;4.80;;;;;;;4.59;81.84;98117.97;1841412;77;25255;-70
2021/01/22 03:50:56;;;;;;;9.80;4.90;;;;;;;4.60;81.89;98110.50;1826540;78;25721;-70
2021/01/22 03:53:23;;;;;;;6.83;4.70;;;;;;;4.58;81.97;98119.39;1826362;78;25235;-71
2021/01/22 03:55:50;;;;;;;9.60;4.70;;;;;;;4.59;82.07;98128.39;1796996;77;25318;-70
2021/01/22 03:58:17;;;;;;;8.53;5.27;;;;;;;4.63;82.08;98135.48;1843408;77;25298;-71
2021/01/22 04:00:44;;;;;;;12.17;6.47;;;;;;;4.63;82.11;98136.78;1828143;77;25635;-70
2021/01/22 04:03:11;;;;;;;8.80;5.30;;;;;;;4.67;82.14;98138.20;1841574;77;25276;-70
2021/01/22 04:05:38;;;;;;;10.47;6.00;;;;;;;4.66;82.06;98128.74;1850064;77;25339;-69
2021/01/22 04:08:05;;;;;;;9.93;6.10;;;;;;;4.62;82.02;98117.71;1840491;77;25267;-69
2021/01/22 04:10:32;;;;;;;10.07;6.30;;;;;;;4.56;81.91;98110.84;1826438;78;25196;-69
2021/01/22 04:12:59;;;;;;;10.20;6.53;;;;;;;4.52;81.89;98106.83;1826464;78;25251;-70
2021/01/22 04:15:25;;;;;;;9.87;6.90;;;;;;;4.46;81.87;98111.56;1826373;78;25055;-69
2021/01/22 04:17:52;;;;;;;8.97;6.40;;;;;;;4.45;81.85;98107.78;1838883;77;25215;-70
2021/01/22 04:20:22;;;;;;;9.03;6.07;;;;;;;4.41;81.79;98109.80;1837768;77;25622;-70
2021/01/22 04:22:50;;;;;;;7.53;5.67;;;;;;;4.37;81.94;98107.05;1826403;78;25283;-69
2021/01/22 04:25:17;;;;;;;8.83;6.17;;;;;;;4.35;82.05;98100.32;1826159;77;25248;-69
2021/01/22 04:27:43;;;;;;;12.87;7.50;;;;;;;4.30;82.19;98096.76;1826475;78;25279;-69
2021/01/22 04:30:11;;;;;;;10.03;6.90;;;;;;;4.28;82.36;98092.97;1826088;78;25658;-70
2021/01/22 04:32:39;;;;;;;9.53;6.87;;;;;;;4.31;82.51;98081.96;1825929;78;25299;-70
2021/01/22 04:35:08;;;;;;;12.77;7.37;;;;;;;4.31;82.54;98068.50;1820892;78;25280;-70
2021/01/22 04:37:34;;;;;;;16.47;9.17;;;;;;;4.28;82.60;98065.64;1794082;78;25343;-69
2021/01/22 04:40:01;;;;;;;18.17;9.60;;;;;;;4.25;82.69;98070.26;1825791;78;25677;-70
2021/01/22 04:42:28;;;;;;;15.73;9.00;;;;;;;4.26;82.86;98071.92;1825775;78;25300;-70
2021/01/22 04:44:54;;;;;;;16.90;9.17;;;;;;;4.25;82.81;98067.66;1825845;78;25191;-70
2021/01/22 04:47:22;;;;;;;16.10;8.90;;;;;;;4.21;82.71;98057.14;1825708;78;25626;-70
2021/01/22 04:49:49;;;;;;;19.73;9.80;;;;;;;4.18;82.67;98056.88;1825765;78;25263;-70
2021/01/22 04:52:17;;;;;;;14.77;8.60;;;;;;;4.12;82.64;98055.22;1825865;78;25268;-70
2021/01/22 04:54:44;;;;;;;20.50;10.80;;;;;;;4.07;82.73;98044.70;1825769;78;25809;-70
2021/01/22 04:57:11;;;;;;;24.63;14.07;;;;;;;4.06;82.85;98047.42;1825938;78;25259;-70
2021/01/22 04:59:49;;;;;;;19.50;12.47;;;;;;;4.08;83.01;98050.73;1825829;78;25697;-71
2021/01/22 05:02:19;;;;;;;18.10;11.13;;;;;;;4.08;83.11;98050.25;1758871;80;25587;-72
2021/01/22 05:04:55;;;;;;;12.97;8.77;;;;;;;4.13;83.34;98040.80;1818437;78;26910;-71
2021/01/22 05:07:22;;;;;;;11.17;7.90;;;;;;;4.10;83.39;98037.13;1763109;80;25629;-71
2021/01/22 05:09:49;;;;;;;12.47;7.30;;;;;;;4.09;83.49;98040.69;1788033;79;25276;-70
2021/01/22 05:12:15;;;;;;;8.97;5.23;;;;;;;4.08;83.63;98041.14;1744130;80;25234;-70
2021/01/22 05:14:42;;;;;;;8.53;5.50;;;;;;;4.09;83.78;98031.59;1757765;81;25295;-70
2021/01/22 05:17:11;;;;;;;8.87;5.33;;;;;;;4.12;83.97;98027.91;1757735;81;25737;-71
2021/01/22 05:19:46;;;;;;;7.53;5.37;;;;;;;4.15;83.90;98019.38;1785883;79;26781;-71
2021/01/22 05:22:17;;;;;;;8.40;5.10;;;;;;;4.12;84.01;98021.40;1742482;82;25228;-69
2021/01/22 05:24:44;;;;;;;8.37;5.10;;;;;;;4.13;84.10;98024.37;1721204;81;25383;-70
2021/01/22 05:27:13;;;;;;;7.07;4.53;;;;;;;4.12;83.94;98006.61;1741795;81;25820;-70
2021/01/22 05:29:41;;;;;;;6.57;4.57;;;;;;;4.14;83.94;98015.59;1742516;82;25739;-71
2021/01/22 05:32:28;;;;;;;6.00;4.50;;;;;;;4.15;83.97;98011.58;1742596;82;25768;-71
2021/01/22 05:34:55;;;;;;;6.67;4.50;;;;;;;4.16;84.11;98013.73;1724479;81;25790;-70
2021/01/22 05:37:26;;;;;;;7.17;4.57;;;;;;;4.17;84.08;98004.95;1742507;81;25319;-71
2021/01/22 05:40:13;;;;;;;8.87;4.90;;;;;;;4.19;84.23;98014.77;1723087;81;25178;-70
2021/01/22 05:42:53;;;;;;;9.80;5.10;;;;;;;4.18;84.18;98024.84;1742546;82;25389;-72
2021/01/22 05:45:43;;;;;;;8.90;4.43;;;;;;;4.18;84.30;98028.74;1742621;81;25286;-71
2021/01/22 05:48:24;;;;;;;9.43;4.97;;;;;;;4.20;84.36;98028.14;1742457;82;25149;-72
2021/01/22 05:50:59;;;;;;;11.80;5.43;;;;;;;4.22;84.36;98017.14;1733052;82;25419;-70
2021/01/22 05:53:27;;;;;;;10.37;5.07;;;;;;;4.20;84.39;98007.33;1691117;82;25740;-70
2021/01/22 05:56:09;;;;;;;14.00;5.30;;;;;;;4.22;84.57;98002.83;1725961;81;25760;-70
2021/01/22 05:58:46;;;;;;;9.17;5.40;;;;;;;4.27;84.54;98000.69;1810370;78;26897;-71
2021/01/22 06:01:19;;;;;;;11.87;5.63;;;;;;;4.21;84.47;98012.41;1772063;80;25715;-70
2021/01/22 06:03:51;;;;;;;11.00;5.50;;;;;;;4.22;84.45;98007.58;1727801;82;25378;-72
2021/01/22 06:06:18;;;;;;;11.40;5.63;;;;;;;4.23;84.32;97996.20;1749345;81;25678;-71
2021/01/22 06:08:55;;;;;;;9.37;5.00;;;;;;;4.22;84.25;97993.72;1757868;81;25381;-70
2021/01/22 06:11:31;;;;;;;11.63;4.93;;;;;;;4.27;84.31;97990.28;1889407;75;26799;-70
2021/01/22 06:14:00;;;;;;;9.30;5.43;;;;;;;4.21;84.40;97995.50;1853859;77;25660;-70
2021/01/22 06:16:28;;;;;;;31.13;20.40;;;;;;;4.21;84.44;98001.19;1815046;77;25265;-71
2021/01/22 06:19:04;;;;;;;13.47;8.50;;;;;;;4.19;84.56;98000.45;1859617;77;25269;-71
2021/01/22 06:21:34;;;;;;;7.97;5.00;;;;;;;4.20;84.71;97996.92;1850243;77;25280;-72
2021/01/22 06:24:02;;;;;;;9.20;4.83;;;;;;;4.24;84.91;98003.08;1837220;77;25780;-71
2021/01/22 06:26:31;;;;;;;11.83;4.93;;;;;;;4.27;84.96;98020.20;1822408;78;25274;-70
2021/01/22 06:29:04;;;;;;;10.10;5.20;;;;;;;4.25;84.94;98011.22;1823425;77;25263;-71
2021/01/22 06:31:31;;;;;;;7.47;4.53;;;;;;;4.24;84.93;98020.44;1837060;77;25333;-70
2021/01/22 06:33:58;;;;;;;10.50;5.17;;;;;;;4.27;85.04;98026.72;1855944;77;25655;-70
2021/01/22 06:36:25;;;;;;;6.80;4.43;;;;;;;4.32;85.10;98025.06;1786442;80;25221;-70
2021/01/22 06:38:53;;;;;;;8.93;4.73;;;;;;;4.36;85.09;98013.00;1785791;80;25632;-72
2021/01/22 06:41:23;;;;;;;6.47;4.83;;;;;;;4.39;85.07;98015.38;1786095;80;25205;-71
2021/01/22 06:43:58;;;;;;;7.80;4.23;;;;;;;4.45;85.11;98009.67;1816366;77;27508;-70
2021/01/22 06:46:28;;;;;;;6.07;4.00;;;;;;;4.43;85.09;98007.66;1774555;79;25052;-69
2021/01/22 06:49:05;;;;;;;7.03;4.00;;;;;;;4.49;84.99;98008.12;1818412;78;26888;-70
2021/01/22 06:51:34;;;;;;;9.73;4.90;;;;;;;4.44;85.00;98011.94;1789211;79;25268;-70
2021/01/22 06:54:21;;;;;;;7.83;4.87;;;;;;;4.44;84.92;98014.54;1789616;79;25272;-69
2021/01/22 06:57:01;;;;;;;17.77;5.33;;;;;;;4.45;84.92;98022.69;1757390;80;25213;-69
2021/01/22 06:59:35;;;;;;;10.07;5.30;;;;;;;4.48;85.00;98032.53;1731005;82;25661;-70
2021/01/22 07:02:01;;;;;;;9.00;4.83;;;;;;;4.50;85.11;98031.45;1730994;82;25197;-70
2021/01/22 07:07:19;;;;;;;8.57;5.07;;;;;;;4.60;85.19;98035.46;1833350;76;26871;-70
2021/01/22 07:09:50;;;;;;;5.87;4.37;;;;;;;4.57;85.13;98034.39;1713378;79;25123;-70
2021/01/22 07:12:40;;;;;;;7.63;5.53;;;;;;;4.57;85.10;98023.98;1787528;79;25596;-71
2021/01/22 07:15:26;;;;;;;9.23;6.80;;;;;;;4.55;85.10;98017.59;1797209;77;25243;-71
2021/01/22 07:18:01;;;;;;;15.27;8.57;;;;;;;4.56;85.22;98021.86;1787562;79;25671;-71
2021/01/22 07:20:30;;;;;;;13.43;7.73;;;;;;;4.61;85.25;98024.11;1778629;78;25274;-70
2021/01/22 07:22:59;;;;;;;11.33;6.60;;;;;;;4.62;85.22;98017.45;1748077;81;25211;-70
2021/01/22 07:28:21;;;;;;;9.17;5.63;;;;;;;4.73;85.22;97997.57;1852891;77;26845;-70
2021/01/22 07:30:48;;;;;;;11.20;7.20;;;;;;;4.71;85.25;97996.84;1788573;80;25292;-71
2021/01/22 07:33:36;;;;;;;12.47;8.10;;;;;;;4.75;85.05;98006.08;1769800;80;25681;-70
2021/01/22 07:36:33;;;;;;;15.37;8.67;;;;;;;4.79;84.90;98016.59;1755552;81;25240;-72
2021/01/22 07:39:01;;;;;;;13.63;7.87;;;;;;;4.82;84.88;98000.73;1687763;83;25646;-71
2021/01/22 07:41:27;;;;;;;13.93;7.70;;;;;;;4.83;84.92;98007.60;1696437;83;25337;-71
2021/01/22 07:44:01;;;;;;;13.87;8.73;;;;;;;4.88;84.96;98002.85;1702387;83;25771;-71
2021/01/22 07:46:31;;;;;;;12.63;8.03;;;;;;;4.93;85.09;97992.06;1695780;83;25767;-72
2021/01/22 07:49:07;;;;;;;12.17;7.33;;;;;;;4.96;85.06;97995.70;1683470;83;25665;-72
2021/01/22 07:54:11;;;;;;;9.97;5.83;;;;;;;5.11;85.12;98001.00;1818579;78;26946;-70
2021/01/22 07:56:39;;;;;;;11.13;6.17;;;;;;;5.11;85.06;98006.67;1789543;80;25701;-70
2021/01/22 07:59:07;;;;;;;11.60;6.47;;;;;;;5.13;85.01;98005.61;1789528;79;25742;-70
2021/01/22 08:01:36;;;;;;;11.60;6.27;;;;;;;5.17;84.87;98004.39;1757497;80;25331;-71
2021/01/22 08:04:04;;;;;;;8.03;5.40;;;;;;;5.23;84.77;98007.45;1789137;79;25210;-71
2021/01/22 08:06:49;;;;;;;8.17;5.30;;;;;;;5.28;84.69;98002.69;1788946;79;25808;-70
2021/01/22 08:09:24;;;;;;;7.77;5.10;;;;;;;5.35;84.68;98005.16;1887116;76;27630;-71
2021/01/22 08:11:56;;;;;;;7.13;5.47;;;;;;;5.35;84.69;98009.89;1842897;77;25257;-72
2021/01/22 08:14:30;;;;;;;8.67;6.00;;;;;;;5.40;84.65;97999.09;1858083;77;25297;-71
2021/01/22 08:16:57;;;;;;;8.30;6.53;;;;;;;5.44;84.64;97997.05;1821094;77;25582;-72
2021/01/22 08:19:25;;;;;;;9.30;7.50;;;;;;;5.49;84.51;98001.41;1832229;77;25201;-71
2021/01/22 08:21:53;;;;;;;10.63;6.83;;;;;;;5.52;84.49;97993.34;1750704;82;25734;-72
2021/01/22 08:24:20;;;;;;;8.40;5.70;;;;;;;5.58;84.35;97997.57;1732433;82;25698;-71
2021/01/22 08:27:01;;;;;;;7.10;5.10;;;;;;;5.62;84.33;97984.28;1750385;81;25343;-71
2021/01/22 08:29:37;;;;;;;7.93;5.30;;;;;;;5.71;84.29;97990.02;1817329;77;26755;-71
2021/01/22 08:32:05;;;;;;;6.60;4.87;;;;;;;5.73;83.82;97998.53;1772008;79;25195;-70
2021/01/22 08:34:35;;;;;;;6.40;4.87;;;;;;;5.76;83.66;97988.70;1786480;79;25256;-70
2021/01/22 08:37:02;;;;;;;7.57;5.00;;;;;;;5.79;83.51;97987.59;1788449;79;25106;-71
2021/01/22 08:39:58;;;;;;;6.17;4.53;;;;;;;5.81;83.53;97989.59;1786755;80;26634;-71
2021/01/22 08:42:23;;;;;;;7.60;5.40;;;;;;;5.84;83.52;97985.42;1771055;80;25207;-71
2021/01/22 08:44:59;;;;;;;9.23;6.10;;;;;;;5.87;83.37;97977.34;1728068;81;25137;-71
2021/01/22 08:47:29;;;;;;;9.37;6.10;;;;;;;5.89;83.40;97983.73;1780478;80;25180;-71
2021/01/22 08:50:01;;;;;;;8.70;5.77;;;;;;;5.93;83.31;97982.50;1757284;81;25658;-71
2021/01/22 08:52:28;;;;;;;7.43;5.43;;;;;;;5.95;83.24;97979.31;1768357;80;25227;-71
2021/01/22 08:54:57;;;;;;;11.37;5.93;;;;;;;6.00;83.23;97982.38;1758028;80;25614;-71
2021/01/22 08:57:30;;;;;;;10.33;6.60;;;;;;;6.03;83.23;97991.23;1788456;79;25043;-71
2021/01/22 08:59:58;;;;;;;11.47;7.30;;;;;;;6.06;83.11;97993.59;1788462;79;25303;-72
2021/01/22 09:02:45;;;;;;;10.93;6.87;;;;;;;6.09;82.86;97999.04;1747652;80;25224;-71
2021/01/22 09:05:16;;;;;;;11.73;7.33;;;;;;;6.10;82.72;98000.22;1757441;80;25695;-71
2021/01/22 09:07:42;;;;;;;10.43;6.57;;;;;;;6.12;82.63;98009.22;1772026;79;25730;-71
2021/01/22 09:10:29;;;;;;;12.83;6.83;;;;;;;6.14;82.70;98004.69;1778022;80;25282;-69
2021/01/22 09:13:10;;;;;;;8.57;5.43;;;;;;;6.16;82.75;98007.17;1777270;80;25623;-70
2021/01/22 09:15:36;;;;;;;8.10;4.87;;;;;;;6.19;82.74;97994.68;1752784;79;25578;-70
2021/01/22 09:18:24;;;;;;;9.63;6.07;;;;;;;6.23;82.59;97990.84;1778690;79;25267;-70
2021/01/22 09:21:05;;;;;;;10.33;6.70;;;;;;;6.26;82.64;97986.66;1761128;80;25072;-71
2021/01/22 09:23:33;;;;;;;11.03;7.40;;;;;;;6.31;82.57;97980.56;1757255;80;25184;-71
2021/01/22 09:26:03;;;;;;;9.87;7.17;;;;;;;6.40;82.37;97985.49;1760782;80;25681;-71
2021/01/22 09:28:30;;;;;;;11.17;5.83;;;;;;;6.49;82.31;97998.23;1777876;80;25561;-71
2021/01/22 09:30:57;;;;;;;9.30;6.10;;;;;;;6.64;81.32;97994.77;1779012;79;25056;-70
2021/01/22 09:33:23;;;;;;;13.40;7.63;;;;;;;6.69;81.44;97989.95;1773162;80;25759;-72
2021/01/22 09:35:51;;;;;;;10.73;7.27;;;;;;;6.76;81.15;97987.63;1730306;82;25334;-71
2021/01/22 09:38:17;;;;;;;13.53;9.70;;;;;;;6.82;81.21;97984.45;1730266;81;25261;-72
2021/01/22 09:40:44;;;;;;;14.07;10.47;;;;;;;6.91;80.71;97976.31;1729608;83;25319;-72
2021/01/22 09:43:13;;;;;;;17.07;10.03;;;;;;;6.98;80.30;97977.41;1762317;80;25270;-72
2021/01/22 09:45:39;;;;;;;12.17;7.20;;;;;;;6.98;80.47;97983.45;1761356;80;25342;-72
2021/01/22 09:48:07;;;;;;;14.73;9.43;;;;;;;7.11;79.39;97989.73;1759832;80;25619;-72
2021/01/22 09:50:34;;;;;;;15.30;10.00;;;;;;;7.18;78.31;97991.31;1759874;80;25285;-72
2021/01/22 09:53:01;;;;;;;12.97;7.83;;;;;;;7.19;78.31;98002.09;1759803;81;25255;-72
2021/01/22 09:55:28;;;;;;;12.00;7.03;;;;;;;7.27;77.60;98000.92;1760037;80;25199;-72
2021/01/22 09:57:54;;;;;;;9.10;6.90;;;;;;;7.28;77.43;97992.12;1759976;80;25634;-72
2021/01/22 10:00:22;;;;;;;8.63;6.23;;;;;;;7.40;76.48;97987.58;1759980;81;25309;-72
2021/01/22 10:02:48;;;;;;;10.57;6.77;;;;;;;7.40;76.09;97979.73;1759884;80;25620;-72
2021/01/22 10:05:15;;;;;;;10.73;7.00;;;;;;;7.46;75.31;97983.11;1768937;80;25817;-70
2021/01/22 10:07:42;;;;;;;11.00;6.80;;;;;;;7.53;74.95;97980.75;1761144;79;25716;-71
2021/01/22 10:10:11;;;;;;;10.77;7.23;;;;;;;7.52;75.32;97985.14;1734177;80;25365;-71
2021/01/22 10:12:37;;;;;;;11.57;7.37;;;;;;;7.58;75.38;97979.85;1734776;81;25112;-70
2021/01/22 10:15:07;;;;;;;13.33;8.13;;;;;;;7.71;75.07;97976.91;1760005;80;26635;-70
2021/01/22 10:17:34;;;;;;;11.60;6.93;;;;;;;7.79;74.34;97974.42;1734564;81;26249;-71
2021/01/22 10:20:01;;;;;;;10.87;6.93;;;;;;;7.86;73.68;97970.75;1759716;80;25246;-71
2021/01/22 10:22:28;;;;;;;11.03;7.03;;;;;;;7.81;74.02;97967.27;1734478;81;26261;-70
2021/01/22 10:24:55;;;;;;;10.70;6.57;;;;;;;7.80;74.79;97969.53;1759935;80;25598;-71
2021/01/22 10:27:24;;;;;;;10.47;7.33;;;;;;;7.88;74.41;97965.73;1759873;80;25258;-71
2021/01/22 10:29:50;;;;;;;11.23;7.40;;;;;;;7.89;74.54;97963.92;1759439;80;26328;-71
2021/01/22 10:32:20;;;;;;;8.97;6.47;;;;;;;7.92;74.69;97964.95;1735492;81;26399;-72
2021/01/22 10:34:47;;;;;;;9.10;6.33;;;;;;;7.97;73.87;97967.47;1770119;79;26809;-71
2021/01/22 10:37:14;;;;;;;9.60;5.77;;;;;;;7.95;73.90;97956.33;1766350;79;25302;-72
2021/01/22 10:39:40;;;;;;;8.30;5.60;;;;;;;7.90;74.09;97953.80;1760904;79;25808;-71
2021/01/22 10:42:07;;;;;;;10.27;5.50;;;;;;;7.88;73.84;97946.09;1726855;80;26237;-71
2021/01/22 10:44:34;;;;;;;9.53;6.27;;;;;;;7.89;73.94;97949.53;1760224;80;25211;-71
2021/01/22 10:47:02;;;;;;;11.47;7.60;;;;;;;7.90;73.79;97950.70;1771292;79;25613;-72
2021/01/22 10:49:29;;;;;;;11.13;7.40;;;;;;;7.89;73.88;97941.67;1747157;80;25324;-72
2021/01/22 10:51:56;;;;;;;12.07;7.67;;;;;;;7.91;73.59;97940.58;1747240;80;26391;-72
2021/01/22 10:54:24;;;;;;;11.23;7.27;;;;;;;7.84;74.11;97938.17;1746679;80;25284;-72
2021/01/22 10:56:50;;;;;;;12.83;6.87;;;;;;;7.90;73.78;97937.61;1747325;80;26352;-72
2021/01/22 10:59:17;;;;;;;15.47;10.70;;;;;;;7.93;73.84;97933.39;1747419;80;25292;-71
2021/01/22 11:01:44;;;;;;;9.83;7.03;;;;;;;7.97;74.05;97939.98;1747131;80;25747;-72
2021/01/22 11:04:10;;;;;;;9.43;6.47;;;;;;;7.99;74.07;97938.07;1754496;79;25151;-72
2021/01/22 11:06:37;;;;;;;8.37;6.30;;;;;;;8.02;74.14;97934.32;1770231;80;25218;-71
2021/01/22 11:09:04;;;;;;;10.33;7.63;;;;;;;8.11;73.56;97945.71;1779820;79;25265;-72
2021/01/22 11:11:31;;;;;;;11.80;10.60;;;;;;;8.07;73.93;97939.95;1779542;80;25215;-71
2021/01/22 11:13:57;;;;;;;6.63;4.83;;;;;;;8.14;73.53;97937.11;1783377;80;26726;-72
2021/01/22 11:16:24;;;;;;;10.37;6.93;;;;;;;8.22;73.43;97943.41;1783410;80;25367;-72
2021/01/22 11:18:51;;;;;;;11.30;7.50;;;;;;;8.24;73.43;97927.87;1781135;80;26718;-71
2021/01/22 11:21:18;;;;;;;8.77;6.10;;;;;;;8.28;73.45;97931.86;1770860;79;26312;-71
2021/01/22 11:23:44;;;;;;;17.30;11.27;;;;;;;8.33;73.28;97928.81;1759537;81;25606;-71
2021/01/22 11:26:11;;;;;;;11.57;9.03;;;;;;;8.34;73.45;97926.52;1759668;81;26297;-71
2021/01/22 11:28:37;;;;;;;11.47;6.97;;;;;;;8.39;73.05;97936.06;1766386;79;25676;-72
2021/01/22 11:31:04;;;;;;;14.27;7.30;;;;;;;8.46;72.22;97935.87;1777854;79;25717;-72
2021/01/22 11:33:31;;;;;;;14.83;7.23;;;;;;;8.49;71.98;97932.11;1771036;79;25266;-71
2021/01/22 11:36:01;;;;;;;10.40;6.10;;;;;;;8.52;71.75;97926.59;1774469;80;26288;-71
2021/01/22 11:38:28;;;;;;;7.67;5.50;;;;;;;8.50;72.12;97928.04;1762817;80;25701;-71
2021/01/22 11:40:54;;;;;;;9.17;6.43;;;;;;;8.52;72.34;97924.78;1763664;80;25198;-71
2021/01/22 11:43:21;;;;;;;8.80;6.07;;;;;;;8.49;72.26;97919.83;1764147;80;26751;-71
2021/01/22 11:45:48;;;;;;;8.00;4.77;;;;;;;8.45;72.49;97912.44;1756602;80;25318;-70
2021/01/22 11:48:15;;;;;;;9.20;4.90;;;;;;;8.43;72.28;97909.11;1756561;80;26647;-71
2021/01/22 11:50:41;;;;;;;7.27;5.23;;;;;;;8.45;72.55;97911.94;1771601;79;26762;-70
2021/01/22 11:53:08;;;;;;;6.87;5.10;;;;;;;8.51;72.54;97910.05;1756721;80;25357;-72
2021/01/22 11:55:38;;;;;;;10.33;6.00;;;;;;;8.56;72.76;97908.77;1756847;81;26317;-73
2021/01/22 11:58:04;;;;;;;10.03;6.50;;;;;;;8.64;72.54;97912.78;1763684;80;26278;-71